sensor_id;sensor_type;location;lat;lon;timestamp;pressure;altitude;pressure_sealevel;temperature;humidity
4598;BME280;62772;48.646;8.906;2024-03-02T00:01:00;95109.38;;;4.01;100.00
4598;BME280;62772;48.646;8.906;2024-03-02T00:06:01;95118.09;;;3.74;100.00
4598;BME280;62772;48.646;8.906;2024-03-02T00:11:02;95120.66;;;3.51;100.00
4598;BME280;62772;48.646;8.906;2024-03-02T00:16:03;95118.41;;;3.72;100.00
4598;BME280;62772;48.646;8.906;2024-03-02T00:21:06;95108.16;;;3.71;100.00
4598;BME280;62772;48.646;8.906;2024-03-02T00:26:11;95107.63;;;3.83;100.00
4598;BME280;62772;48.646;8.906;2024-03-02T00:31:12;95103.34;;;3.73;100.00
4598;BME280;62772;48.646;8.906;2024-03-02T00:36:15;95107.53;;;3.88;100.00
4598;BME280;62772;48.646;8.906;2024-03-02T00:41:36;95117.13;;;3.84;100.00
4598;BME280;62772;48.646;8.906;2024-03-02T00:46:40;95116.63;;;3.81;100.00
4598;BME280;62772;48.646;8.906;2024-03-02T00:51:41;95119.25;;;3.81;100.00
4598;BME280;62772;48.646;8.906;2024-03-02T00:56:42;95117.03;;;3.75;100.00
4598;BME280;62772;48.646;8.906;2024-03-02T01:01:42;95114.38;;;3.75;100.00
4598;BME280;62772;48.646;8.906;2024-03-02T01:06:43;95114.38;;;3.61;100.00
4598;BME280;62772;48.646;8.906;2024-03-02T01:11:44;95117.72;;;3.80;100.00
4598;BME280;62772;48.646;8.906;2024-03-02T01:16:44;95115.38;;;3.79;100.00
4598;BME280;62772;48.646;8.906;2024-03-02T01:21:44;95109.50;;;3.68;100.00
4598;BME280;62772;48.646;8.906;2024-03-02T01:26:45;95109.09;;;3.61;100.00
4598;BME280;62772;48.646;8.906;2024-03-02T01:31:45;95103.94;;;3.70;100.00
4598;BME280;62772;48.646;8.906;2024-03-02T01:36:46;95099.06;;;3.63;100.00
4598;BME280;62772;48.646;8.906;2024-03-02T01:41:47;95102.56;;;3.58;100.00
4598;BME280;62772;48.646;8.906;2024-03-02T01:46:47;95097.88;;;3.41;100.00
4598;BME280;62772;48.646;8.906;2024-03-02T01:51:48;95097.59;;;3.43;100.00
4598;BME280;62772;48.646;8.906;2024-03-02T01:56:48;95091.63;;;3.37;100.00
4598;BME280;62772;48.646;8.906;2024-03-02T02:01:49;95099.00;;;2.94;100.00
4598;BME280;62772;48.646;8.906;2024-03-02T02:06:49;95095.59;;;3.07;100.00
4598;BME280;62772;48.646;8.906;2024-03-02T02:11:50;95097.91;;;2.81;100.00
4598;BME280;62772;48.646;8.906;2024-03-02T02:16:51;95094.53;;;3.08;100.00
4598;BME280;62772;48.646;8.906;2024-03-02T02:21:52;95091.22;;;3.16;100.00
4598;BME280;62772;48.646;8.906;2024-03-02T02:26:53;95088.50;;;3.21;100.00
4598;BME280;62772;48.646;8.906;2024-03-02T02:31:53;95075.22;;;2.66;100.00
4598;BME280;62772;48.646;8.906;2024-03-02T02:36:54;95073.41;;;2.47;100.00
4598;BME280;62772;48.646;8.906;2024-03-02T02:41:55;95071.63;;;2.89;100.00
4598;BME280;62772;48.646;8.906;2024-03-02T02:46:55;95076.69;;;2.72;100.00
4598;BME280;62772;48.646;8.906;2024-03-02T02:51:56;95073.75;;;2.60;100.00
4598;BME280;62772;48.646;8.906;2024-03-02T02:56:56;95077.22;;;2.22;100.00
4598;BME280;62772;48.646;8.906;2024-03-02T03:01:57;95074.72;;;2.31;100.00
4598;BME280;62772;48.646;8.906;2024-03-02T03:06:57;95072.81;;;1.98;100.00
4598;BME280;62772;48.646;8.906;2024-03-02T03:11:58;95073.06;;;2.35;100.00
4598;BME280;62772;48.646;8.906;2024-03-02T03:16:58;95072.44;;;2.05;100.00
4598;BME280;62772;48.646;8.906;2024-03-02T03:21:58;95067.31;;;2.33;100.00
4598;BME280;62772;48.646;8.906;2024-03-02T03:26:59;95070.03;;;2.28;100.00
4598;BME280;62772;48.646;8.906;2024-03-02T03:31:59;95075.13;;;2.38;100.00
4598;BME280;62772;48.646;8.906;2024-03-02T03:37:00;95075.88;;;2.25;100.00
4598;BME280;62772;48.646;8.906;2024-03-02T03:42:00;95079.66;;;2.18;100.00
4598;BME280;62772;48.646;8.906;2024-03-02T03:47:01;95066.47;;;2.18;100.00
4598;BME280;62772;48.646;8.906;2024-03-02T03:52:03;95067.63;;;2.12;100.00
4598;BME280;62772;48.646;8.906;2024-03-02T03:57:04;95063.34;;;2.16;100.00
4598;BME280;62772;48.646;8.906;2024-03-02T04:02:05;95073.94;;;2.11;100.00
4598;BME280;62772;48.646;8.906;2024-03-02T04:07:05;95073.03;;;1.83;100.00
4598;BME280;62772;48.646;8.906;2024-03-02T04:12:06;95070.91;;;2.04;100.00
4598;BME280;62772;48.646;8.906;2024-03-02T04:17:06;95069.31;;;2.03;100.00
4598;BME280;62772;48.646;8.906;2024-03-02T04:22:06;95075.59;;;1.88;100.00
4598;BME280;62772;48.646;8.906;2024-03-02T04:27:07;95080.06;;;1.88;100.00
4598;BME280;62772;48.646;8.906;2024-03-02T04:32:07;95073.38;;;2.14;100.00
4598;BME280;62772;48.646;8.906;2024-03-02T04:37:09;95081.16;;;1.87;100.00
4598;BME280;62772;48.646;8.906;2024-03-02T04:42:10;95077.78;;;1.81;100.00
4598;BME280;62772;48.646;8.906;2024-03-02T04:47:10;95077.94;;;1.71;100.00
4598;BME280;62772;48.646;8.906;2024-03-02T04:52:11;95073.38;;;1.95;100.00
4598;BME280;62772;48.646;8.906;2024-03-02T04:57:11;95082.00;;;1.82;100.00
4598;BME280;62772;48.646;8.906;2024-03-02T05:02:12;95073.03;;;2.02;100.00
4598;BME280;62772;48.646;8.906;2024-03-02T05:07:14;95085.56;;;1.91;100.00
4598;BME280;62772;48.646;8.906;2024-03-02T05:12:15;95084.75;;;1.91;100.00
4598;BME280;62772;48.646;8.906;2024-03-02T05:17:34;95080.22;;;1.96;100.00
4598;BME280;62772;48.646;8.906;2024-03-02T05:22:34;95093.78;;;2.23;100.00
4598;BME280;62772;48.646;8.906;2024-03-02T05:27:35;95100.78;;;2.32;100.00
4598;BME280;62772;48.646;8.906;2024-03-02T05:32:35;95098.50;;;2.26;100.00
4598;BME280;62772;48.646;8.906;2024-03-02T05:37:36;95101.06;;;2.31;100.00
4598;BME280;62772;48.646;8.906;2024-03-02T05:42:36;95095.66;;;2.22;100.00
4598;BME280;62772;48.646;8.906;2024-03-02T05:47:37;95106.41;;;2.26;100.00
4598;BME280;62772;48.646;8.906;2024-03-02T05:52:38;95106.69;;;2.24;100.00
4598;BME280;62772;48.646;8.906;2024-03-02T05:57:39;95106.75;;;2.19;100.00
4598;BME280;62772;48.646;8.906;2024-03-02T06:02:58;95102.59;;;1.99;100.00
4598;BME280;62772;48.646;8.906;2024-03-02T06:07:58;95105.13;;;2.04;100.00
4598;BME280;62772;48.646;8.906;2024-03-02T06:12:59;95106.06;;;1.94;100.00
4598;BME280;62772;48.646;8.906;2024-03-02T06:17:59;95108.13;;;1.97;100.00
4598;BME280;62772;48.646;8.906;2024-03-02T06:23:00;95111.81;;;1.96;100.00
4598;BME280;62772;48.646;8.906;2024-03-02T06:28:01;95128.34;;;2.02;100.00
4598;BME280;62772;48.646;8.906;2024-03-02T06:33:01;95118.31;;;2.04;100.00
4598;BME280;62772;48.646;8.906;2024-03-02T06:38:04;95128.91;;;1.99;100.00
4598;BME280;62772;48.646;8.906;2024-03-02T06:43:04;95126.13;;;2.09;100.00
4598;BME280;62772;48.646;8.906;2024-03-02T06:48:05;95119.66;;;2.02;100.00
4598;BME280;62772;48.646;8.906;2024-03-02T06:53:05;95124.34;;;2.05;100.00
4598;BME280;62772;48.646;8.906;2024-03-02T06:58:06;95122.94;;;2.12;100.00
4598;BME280;62772;48.646;8.906;2024-03-02T07:03:06;95118.72;;;1.92;100.00
4598;BME280;62772;48.646;8.906;2024-03-02T07:08:07;95121.78;;;1.99;100.00
4598;BME280;62772;48.646;8.906;2024-03-02T07:13:08;95124.63;;;2.03;100.00
4598;BME280;62772;48.646;8.906;2024-03-02T07:18:08;95130.09;;;2.07;100.00
4598;BME280;62772;48.646;8.906;2024-03-02T07:23:09;95123.56;;;2.23;100.00
4598;BME280;62772;48.646;8.906;2024-03-02T07:28:09;95134.94;;;1.99;100.00
4598;BME280;62772;48.646;8.906;2024-03-02T07:33:10;95135.16;;;2.03;100.00
4598;BME280;62772;48.646;8.906;2024-03-02T07:38:11;95130.03;;;1.93;100.00
4598;BME280;62772;48.646;8.906;2024-03-02T07:43:12;95133.91;;;2.01;100.00
4598;BME280;62772;48.646;8.906;2024-03-02T07:48:13;95134.81;;;2.10;100.00
4598;BME280;62772;48.646;8.906;2024-03-02T07:53:14;95135.16;;;2.22;100.00
4598;BME280;62772;48.646;8.906;2024-03-02T07:58:15;95125.34;;;2.47;100.00
4598;BME280;62772;48.646;8.906;2024-03-02T08:03:15;95126.88;;;2.67;100.00
4598;BME280;62772;48.646;8.906;2024-03-02T08:08:16;95135.69;;;2.76;100.00
4598;BME280;62772;48.646;8.906;2024-03-02T08:13:16;95136.88;;;2.84;100.00
4598;BME280;62772;48.646;8.906;2024-03-02T08:18:18;95139.56;;;2.98;100.00
4598;BME280;62772;48.646;8.906;2024-03-02T08:23:18;95130.50;;;3.18;100.00
4598;BME280;62772;48.646;8.906;2024-03-02T08:28:19;95132.28;;;3.36;100.00
4598;BME280;62772;48.646;8.906;2024-03-02T08:33:20;95129.16;;;3.48;100.00
4598;BME280;62772;48.646;8.906;2024-03-02T08:38:21;95137.00;;;3.53;100.00
4598;BME280;62772;48.646;8.906;2024-03-02T08:43:21;95140.03;;;3.60;100.00
4598;BME280;62772;48.646;8.906;2024-03-02T08:48:22;95129.16;;;3.76;100.00
4598;BME280;62772;48.646;8.906;2024-03-02T08:53:23;95119.94;;;3.87;100.00
4598;BME280;62772;48.646;8.906;2024-03-02T08:58:23;95123.75;;;3.95;100.00
4598;BME280;62772;48.646;8.906;2024-03-02T09:03:24;95114.44;;;4.11;100.00
4598;BME280;62772;48.646;8.906;2024-03-02T09:08:24;95108.81;;;4.27;100.00
4598;BME280;62772;48.646;8.906;2024-03-02T09:13:25;95111.94;;;4.51;100.00
4598;BME280;62772;48.646;8.906;2024-03-02T09:18:25;95102.19;;;4.83;100.00
4598;BME280;62772;48.646;8.906;2024-03-02T09:23:26;95106.53;;;5.11;100.00
4598;BME280;62772;48.646;8.906;2024-03-02T09:28:26;95101.44;;;5.14;100.00
4598;BME280;62772;48.646;8.906;2024-03-02T09:33:27;95099.78;;;5.27;100.00
4598;BME280;62772;48.646;8.906;2024-03-02T09:38:27;95098.13;;;5.49;100.00
4598;BME280;62772;48.646;8.906;2024-03-02T09:43:28;95102.56;;;5.71;100.00
4598;BME280;62772;48.646;8.906;2024-03-02T09:48:29;95098.84;;;5.80;100.00
4598;BME280;62772;48.646;8.906;2024-03-02T09:53:32;95100.63;;;6.03;100.00
4598;BME280;62772;48.646;8.906;2024-03-02T09:58:33;95099.50;;;5.95;100.00
4598;BME280;62772;48.646;8.906;2024-03-02T10:03:33;95092.34;;;5.95;100.00
4598;BME280;62772;48.646;8.906;2024-03-02T10:08:43;95090.66;;;6.52;100.00
4598;BME280;62772;48.646;8.906;2024-03-02T10:13:48;95094.56;;;6.54;100.00
4598;BME280;62772;48.646;8.906;2024-03-02T10:18:49;95095.97;;;6.78;100.00
4598;BME280;62772;48.646;8.906;2024-03-02T10:23:49;95084.22;;;6.88;100.00
4598;BME280;62772;48.646;8.906;2024-03-02T10:28:50;95079.69;;;6.88;100.00
4598;BME280;62772;48.646;8.906;2024-03-02T10:33:59;95076.31;;;7.26;100.00
4598;BME280;62772;48.646;8.906;2024-03-02T10:39:02;95075.91;;;7.07;100.00
4598;BME280;62772;48.646;8.906;2024-03-02T10:44:06;95067.19;;;6.98;100.00
4598;BME280;62772;48.646;8.906;2024-03-02T10:49:07;95064.31;;;7.50;100.00
4598;BME280;62772;48.646;8.906;2024-03-02T10:54:07;95062.06;;;7.31;100.00
4598;BME280;62772;48.646;8.906;2024-03-02T10:59:27;95046.72;;;7.67;100.00
4598;BME280;62772;48.646;8.906;2024-03-02T11:04:31;95048.94;;;7.65;100.00
4598;BME280;62772;48.646;8.906;2024-03-02T11:09:34;95044.72;;;8.14;100.00
4598;BME280;62772;48.646;8.906;2024-03-02T11:14:37;95040.94;;;8.58;100.00
4598;BME280;62772;48.646;8.906;2024-03-02T11:19:40;95036.09;;;8.84;100.00
4598;BME280;62772;48.646;8.906;2024-03-02T11:24:49;95026.31;;;8.76;100.00
4598;BME280;62772;48.646;8.906;2024-03-02T11:29:49;95017.06;;;8.95;100.00
4598;BME280;62772;48.646;8.906;2024-03-02T11:34:50;95009.63;;;9.13;100.00
4598;BME280;62772;48.646;8.906;2024-03-02T11:39:51;95002.72;;;8.87;100.00
4598;BME280;62772;48.646;8.906;2024-03-02T11:44:56;94999.75;;;8.88;100.00
4598;BME280;62772;48.646;8.906;2024-03-02T11:49:56;94979.34;;;8.93;100.00
4598;BME280;62772;48.646;8.906;2024-03-02T11:54:58;94981.78;;;9.22;100.00
4598;BME280;62772;48.646;8.906;2024-03-02T11:59:58;94977.78;;;9.53;100.00
4598;BME280;62772;48.646;8.906;2024-03-02T12:04:59;94972.34;;;9.37;100.00
4598;BME280;62772;48.646;8.906;2024-03-02T12:10:01;94964.34;;;9.50;100.00
4598;BME280;62772;48.646;8.906;2024-03-02T12:15:02;94965.78;;;10.00;100.00
4598;BME280;62772;48.646;8.906;2024-03-02T12:20:05;94950.78;;;9.55;100.00
4598;BME280;62772;48.646;8.906;2024-03-02T12:25:06;94956.47;;;9.53;100.00
4598;BME280;62772;48.646;8.906;2024-03-02T12:30:07;94945.94;;;9.85;100.00
4598;BME280;62772;48.646;8.906;2024-03-02T12:35:11;94949.16;;;10.47;100.00
4598;BME280;62772;48.646;8.906;2024-03-02T12:40:16;94945.25;;;10.45;97.84
4598;BME280;62772;48.646;8.906;2024-03-02T12:45:20;94936.28;;;10.37;100.00
4598;BME280;62772;48.646;8.906;2024-03-02T12:50:23;94938.09;;;10.33;100.00
4598;BME280;62772;48.646;8.906;2024-03-02T12:55:24;94931.84;;;10.29;100.00
4598;BME280;62772;48.646;8.906;2024-03-02T13:00:25;94930.75;;;10.58;100.00
4598;BME280;62772;48.646;8.906;2024-03-02T13:05:30;94927.03;;;10.47;100.00
4598;BME280;62772;48.646;8.906;2024-03-02T13:10:31;94929.34;;;10.48;100.00
4598;BME280;62772;48.646;8.906;2024-03-02T13:15:33;94925.28;;;10.39;100.00
4598;BME280;62772;48.646;8.906;2024-03-02T13:20:33;94918.56;;;10.45;100.00
4598;BME280;62772;48.646;8.906;2024-03-02T13:25:34;94915.91;;;10.45;100.00
4598;BME280;62772;48.646;8.906;2024-03-02T13:30:35;94915.56;;;10.62;100.00
4598;BME280;62772;48.646;8.906;2024-03-02T13:35:36;94912.03;;;10.42;100.00
4598;BME280;62772;48.646;8.906;2024-03-02T13:40:36;94914.38;;;10.44;100.00
4598;BME280;62772;48.646;8.906;2024-03-02T13:45:38;94890.78;;;10.78;100.00
4598;BME280;62772;48.646;8.906;2024-03-02T13:50:39;94885.41;;;11.10;100.00
4598;BME280;62772;48.646;8.906;2024-03-02T13:55:39;94885.84;;;10.96;100.00
4598;BME280;62772;48.646;8.906;2024-03-02T14:00:42;94877.59;;;10.85;100.00
4598;BME280;62772;48.646;8.906;2024-03-02T14:05:44;94880.97;;;10.82;100.00
4598;BME280;62772;48.646;8.906;2024-03-02T14:10:46;94866.13;;;10.84;100.00
4598;BME280;62772;48.646;8.906;2024-03-02T14:15:47;94871.38;;;10.97;100.00
4598;BME280;62772;48.646;8.906;2024-03-02T14:20:47;94867.06;;;10.92;100.00
4598;BME280;62772;48.646;8.906;2024-03-02T14:25:52;94872.94;;;10.98;100.00
4598;BME280;62772;48.646;8.906;2024-03-02T14:30:53;94861.34;;;11.10;100.00
4598;BME280;62772;48.646;8.906;2024-03-02T14:35:54;94853.75;;;10.76;100.00
4598;BME280;62772;48.646;8.906;2024-03-02T14:40:54;94845.56;;;10.85;100.00
4598;BME280;62772;48.646;8.906;2024-03-02T14:45:55;94840.72;;;10.91;100.00
4598;BME280;62772;48.646;8.906;2024-03-02T14:50:56;94836.75;;;10.84;100.00
4598;BME280;62772;48.646;8.906;2024-03-02T14:55:57;94831.06;;;10.86;100.00
4598;BME280;62772;48.646;8.906;2024-03-02T15:00:58;94819.69;;;10.89;100.00
4598;BME280;62772;48.646;8.906;2024-03-02T15:05:58;94815.84;;;10.70;100.00
4598;BME280;62772;48.646;8.906;2024-03-02T15:10:59;94815.25;;;10.77;100.00
4598;BME280;62772;48.646;8.906;2024-03-02T15:16:00;94804.28;;;10.82;100.00
4598;BME280;62772;48.646;8.906;2024-03-02T15:21:01;94801.00;;;10.89;100.00
4598;BME280;62772;48.646;8.906;2024-03-02T15:26:01;94796.75;;;10.88;100.00
4598;BME280;62772;48.646;8.906;2024-03-02T15:31:02;94794.53;;;10.90;100.00
4598;BME280;62772;48.646;8.906;2024-03-02T15:36:04;94790.75;;;10.75;100.00
4598;BME280;62772;48.646;8.906;2024-03-02T15:41:05;94786.47;;;10.70;100.00
4598;BME280;62772;48.646;8.906;2024-03-02T15:46:05;94784.84;;;10.82;100.00
4598;BME280;62772;48.646;8.906;2024-03-02T15:51:06;94777.16;;;10.80;100.00
4598;BME280;62772;48.646;8.906;2024-03-02T15:56:06;94785.88;;;10.77;100.00
4598;BME280;62772;48.646;8.906;2024-03-02T16:01:07;94787.22;;;10.51;100.00
4598;BME280;62772;48.646;8.906;2024-03-02T16:06:08;94790.88;;;10.31;100.00
4598;BME280;62772;48.646;8.906;2024-03-02T16:11:08;94792.28;;;10.41;100.00
4598;BME280;62772;48.646;8.906;2024-03-02T16:16:11;94793.47;;;10.59;100.00
4598;BME280;62772;48.646;8.906;2024-03-02T16:21:11;94791.38;;;10.68;100.00
4598;BME280;62772;48.646;8.906;2024-03-02T16:26:11;94795.28;;;10.55;100.00
4598;BME280;62772;48.646;8.906;2024-03-02T16:31:15;94791.25;;;10.45;100.00
4598;BME280;62772;48.646;8.906;2024-03-02T16:36:18;94788.34;;;10.34;100.00
4598;BME280;62772;48.646;8.906;2024-03-02T16:41:18;94790.88;;;10.31;100.00
4598;BME280;62772;48.646;8.906;2024-03-02T16:46:19;94784.25;;;10.09;100.00
4598;BME280;62772;48.646;8.906;2024-03-02T16:51:19;94793.28;;;10.20;100.00
4598;BME280;62772;48.646;8.906;2024-03-02T16:56:20;94790.53;;;10.01;100.00
4598;BME280;62772;48.646;8.906;2024-03-02T17:01:20;94784.59;;;9.91;100.00
4598;BME280;62772;48.646;8.906;2024-03-02T17:06:21;94787.75;;;9.97;100.00
4598;BME280;62772;48.646;8.906;2024-03-02T17:11:21;94785.88;;;9.97;100.00
4598;BME280;62772;48.646;8.906;2024-03-02T17:16:22;94791.44;;;9.76;100.00
4598;BME280;62772;48.646;8.906;2024-03-02T17:21:23;94799.06;;;9.62;100.00
4598;BME280;62772;48.646;8.906;2024-03-02T17:26:25;94800.56;;;9.75;100.00
4598;BME280;62772;48.646;8.906;2024-03-02T17:31:25;94778.69;;;9.70;100.00
4598;BME280;62772;48.646;8.906;2024-03-02T17:36:26;94783.44;;;9.76;100.00
4598;BME280;62772;48.646;8.906;2024-03-02T17:41:27;94790.72;;;9.63;100.00
4598;BME280;62772;48.646;8.906;2024-03-02T17:46:27;94793.97;;;9.29;100.00
4598;BME280;62772;48.646;8.906;2024-03-02T17:51:28;94781.72;;;9.40;100.00
4598;BME280;62772;48.646;8.906;2024-03-02T17:56:28;94783.59;;;9.39;100.00
4598;BME280;62772;48.646;8.906;2024-03-02T18:01:28;94790.69;;;9.48;100.00
4598;BME280;62772;48.646;8.906;2024-03-02T18:06:29;94788.31;;;9.30;100.00
4598;BME280;62772;48.646;8.906;2024-03-02T18:11:29;94790.03;;;9.10;100.00
4598;BME280;62772;48.646;8.906;2024-03-02T18:16:30;94789.19;;;8.94;100.00
4598;BME280;62772;48.646;8.906;2024-03-02T18:21:30;94791.31;;;8.76;100.00
4598;BME280;62772;48.646;8.906;2024-03-02T18:26:31;94778.44;;;8.78;100.00
4598;BME280;62772;48.646;8.906;2024-03-02T18:31:33;94776.69;;;8.57;100.00
4598;BME280;62772;48.646;8.906;2024-03-02T18:36:33;94770.38;;;8.74;100.00
4598;BME280;62772;48.646;8.906;2024-03-02T18:41:34;94761.34;;;8.91;100.00
4598;BME280;62772;48.646;8.906;2024-03-02T18:46:34;94756.69;;;8.88;100.00
4598;BME280;62772;48.646;8.906;2024-03-02T18:51:35;94760.81;;;8.85;100.00
4598;BME280;62772;48.646;8.906;2024-03-02T18:56:36;94760.03;;;8.85;100.00
4598;BME280;62772;48.646;8.906;2024-03-02T19:01:36;94764.06;;;8.54;100.00
4598;BME280;62772;48.646;8.906;2024-03-02T19:06:37;94763.56;;;8.89;100.00
4598;BME280;62772;48.646;8.906;2024-03-02T19:11:37;94766.13;;;8.85;100.00
4598;BME280;62772;48.646;8.906;2024-03-02T19:16:38;94761.38;;;8.54;100.00
4598;BME280;62772;48.646;8.906;2024-03-02T19:21:38;94758.16;;;8.36;100.00
4598;BME280;62772;48.646;8.906;2024-03-02T19:26:39;94761.06;;;8.18;100.00
4598;BME280;62772;48.646;8.906;2024-03-02T19:31:39;94753.72;;;8.03;100.00
4598;BME280;62772;48.646;8.906;2024-03-02T19:36:39;94742.56;;;8.10;100.00
4598;BME280;62772;48.646;8.906;2024-03-02T19:41:40;94749.50;;;7.90;100.00
4598;BME280;62772;48.646;8.906;2024-03-02T19:46:42;94745.09;;;7.48;100.00
4598;BME280;62772;48.646;8.906;2024-03-02T19:51:42;94735.63;;;7.26;100.00
4598;BME280;62772;48.646;8.906;2024-03-02T19:56:43;94731.53;;;6.95;100.00
4598;BME280;62772;48.646;8.906;2024-03-02T20:01:45;94725.97;;;6.88;100.00
4598;BME280;62772;48.646;8.906;2024-03-02T20:06:45;94725.81;;;6.63;100.00
4598;BME280;62772;48.646;8.906;2024-03-02T20:11:46;94724.66;;;6.52;100.00
4598;BME280;62772;48.646;8.906;2024-03-02T20:16:47;94726.09;;;6.20;100.00
4598;BME280;62772;48.646;8.906;2024-03-02T20:21:48;94723.13;;;5.82;100.00
4598;BME280;62772;48.646;8.906;2024-03-02T20:26:48;94719.22;;;6.18;100.00
4598;BME280;62772;48.646;8.906;2024-03-02T20:31:49;94706.91;;;6.23;100.00
4598;BME280;62772;48.646;8.906;2024-03-02T20:36:49;94700.34;;;6.20;100.00
4598;BME280;62772;48.646;8.906;2024-03-02T20:41:50;94704.38;;;5.96;100.00
4598;BME280;62772;48.646;8.906;2024-03-02T20:46:52;94688.47;;;6.26;100.00
4598;BME280;62772;48.646;8.906;2024-03-02T20:51:52;94689.41;;;6.01;100.00
4598;BME280;62772;48.646;8.906;2024-03-02T20:56:53;94683.47;;;5.56;100.00
4598;BME280;62772;48.646;8.906;2024-03-02T21:01:56;94677.78;;;5.75;100.00
4598;BME280;62772;48.646;8.906;2024-03-02T21:06:56;94673.25;;;5.85;100.00
4598;BME280;62772;48.646;8.906;2024-03-02T21:11:57;94674.72;;;5.64;100.00
4598;BME280;62772;48.646;8.906;2024-03-02T21:16:57;94675.66;;;5.69;100.00
4598;BME280;62772;48.646;8.906;2024-03-02T21:21:59;94678.78;;;5.62;100.00
4598;BME280;62772;48.646;8.906;2024-03-02T21:27:01;94679.13;;;5.52;100.00
4598;BME280;62772;48.646;8.906;2024-03-02T21:32:02;94663.66;;;5.71;100.00
4598;BME280;62772;48.646;8.906;2024-03-02T21:37:02;94666.75;;;5.73;100.00
4598;BME280;62772;48.646;8.906;2024-03-02T21:42:03;94680.78;;;5.26;100.00
4598;BME280;62772;48.646;8.906;2024-03-02T21:47:04;94666.03;;;5.08;100.00
4598;BME280;62772;48.646;8.906;2024-03-02T21:52:05;94675.84;;;5.63;100.00
4598;BME280;62772;48.646;8.906;2024-03-02T21:57:05;94678.34;;;4.95;100.00
4598;BME280;62772;48.646;8.906;2024-03-02T22:02:09;94673.69;;;4.83;100.00
4598;BME280;62772;48.646;8.906;2024-03-02T22:07:09;94666.16;;;5.12;100.00
4598;BME280;62772;48.646;8.906;2024-03-02T22:12:10;94666.84;;;4.82;100.00
4598;BME280;62772;48.646;8.906;2024-03-02T22:17:13;94666.38;;;4.71;100.00
4598;BME280;62772;48.646;8.906;2024-03-02T22:22:14;94665.00;;;4.74;100.00
4598;BME280;62772;48.646;8.906;2024-03-02T22:27:15;94647.09;;;4.71;100.00
4598;BME280;62772;48.646;8.906;2024-03-02T22:32:15;94644.59;;;4.83;100.00
4598;BME280;62772;48.646;8.906;2024-03-02T22:37:16;94646.03;;;5.28;100.00
4598;BME280;62772;48.646;8.906;2024-03-02T22:42:18;94643.19;;;4.77;100.00
4598;BME280;62772;48.646;8.906;2024-03-02T22:47:19;94637.47;;;4.49;100.00
4598;BME280;62772;48.646;8.906;2024-03-02T22:52:20;94637.06;;;5.12;100.00
4598;BME280;62772;48.646;8.906;2024-03-02T22:57:20;94627.19;;;4.73;100.00
4598;BME280;62772;48.646;8.906;2024-03-02T23:02:21;94614.94;;;5.16;100.00
4598;BME280;62772;48.646;8.906;2024-03-02T23:07:24;94617.84;;;4.67;100.00
4598;BME280;62772;48.646;8.906;2024-03-02T23:12:24;94626.09;;;4.75;100.00
4598;BME280;62772;48.646;8.906;2024-03-02T23:17:25;94635.94;;;4.39;100.00
4598;BME280;62772;48.646;8.906;2024-03-02T23:22:25;94654.09;;;4.32;100.00
4598;BME280;62772;48.646;8.906;2024-03-02T23:27:25;94658.13;;;4.21;100.00
4598;BME280;62772;48.646;8.906;2024-03-02T23:32:26;94645.41;;;4.66;100.00
4598;BME280;62772;48.646;8.906;2024-03-02T23:37:27;94641.16;;;4.92;100.00
4598;BME280;62772;48.646;8.906;2024-03-02T23:42:32;94632.25;;;5.05;100.00
4598;BME280;62772;48.646;8.906;2024-03-02T23:47:32;94637.09;;;4.94;100.00
4598;BME280;62772;48.646;8.906;2024-03-02T23:52:33;94628.38;;;5.02;100.00
4598;BME280;62772;48.646;8.906;2024-03-02T23:57:33;94612.97;;;5.43;100.00
